sensor_id;sensor_type;location;lat;lon;timestamp;temperature;humidity
53926;DHT22;39836;52.754;6.866;2024-02-14T09:39:46;11.20;87.90
53926;DHT22;39836;52.754;6.866;2024-02-14T09:46:42;11.10;87.90
53926;DHT22;39836;52.754;6.866;2024-02-14T09:53:41;11.20;87.90
53926;DHT22;39836;52.754;6.866;2024-02-14T09:56:54;11.10;87.90
53926;DHT22;39836;52.754;6.866;2024-02-14T09:59:39;11.20;87.90
53926;DHT22;39836;52.754;6.866;2024-02-14T10:02:19;11.20;88.00
53926;DHT22;39836;52.754;6.866;2024-02-14T10:04:58;11.20;87.90
53926;DHT22;39836;52.754;6.866;2024-02-14T10:07:40;11.20;87.90
53926;DHT22;39836;52.754;6.866;2024-02-14T10:10:25;11.30;87.90
53926;DHT22;39836;52.754;6.866;2024-02-14T10:12:51;11.30;87.90
53926;DHT22;39836;52.754;6.866;2024-02-14T10:15:17;11.30;87.90
53926;DHT22;39836;52.754;6.866;2024-02-14T10:17:46;11.30;87.90
53926;DHT22;39836;52.754;6.866;2024-02-14T10:20:35;11.30;87.90
53926;DHT22;39836;52.754;6.866;2024-02-14T10:23:07;11.50;88.00
53926;DHT22;39836;52.754;6.866;2024-02-14T10:25:37;11.50;88.00
53926;DHT22;39836;52.754;6.866;2024-02-14T10:35:50;11.60;88.00
53926;DHT22;39836;52.754;6.866;2024-02-14T10:39:06;11.70;88.00
53926;DHT22;39836;52.754;6.866;2024-02-14T10:45:30;11.60;88.00
53926;DHT22;39836;52.754;6.866;2024-02-14T10:47:57;11.70;88.00
53926;DHT22;39836;52.754;6.866;2024-02-14T10:50:35;11.60;88.00
53926;DHT22;39836;52.754;6.866;2024-02-14T10:53:09;11.80;88.00
53926;DHT22;39836;52.754;6.866;2024-02-14T10:55:47;11.70;88.00
53926;DHT22;39836;52.754;6.866;2024-02-14T10:58:17;11.80;88.00
53926;DHT22;39836;52.754;6.866;2024-02-14T11:00:46;11.80;88.00
53926;DHT22;39836;52.754;6.866;2024-02-14T11:03:13;11.70;88.00
53926;DHT22;39836;52.754;6.866;2024-02-14T11:05:47;11.70;88.00
53926;DHT22;39836;52.754;6.866;2024-02-14T11:08:14;11.80;88.00
53926;DHT22;39836;52.754;6.866;2024-02-14T11:10:40;11.80;88.00
53926;DHT22;39836;52.754;6.866;2024-02-14T11:13:13;11.80;88.00
53926;DHT22;39836;52.754;6.866;2024-02-14T11:15:51;11.80;88.10
53926;DHT22;39836;52.754;6.866;2024-02-14T11:18:25;11.90;88.10
53926;DHT22;39836;52.754;6.866;2024-02-14T11:20:52;12.00;88.10
53926;DHT22;39836;52.754;6.866;2024-02-14T11:23:23;12.00;88.10
53926;DHT22;39836;52.754;6.866;2024-02-14T11:26:02;12.00;88.10
53926;DHT22;39836;52.754;6.866;2024-02-14T11:28:32;12.00;88.10
53926;DHT22;39836;52.754;6.866;2024-02-14T11:31:10;12.00;88.10
53926;DHT22;39836;52.754;6.866;2024-02-14T11:33:36;12.00;88.10
53926;DHT22;39836;52.754;6.866;2024-02-14T11:36:08;12.10;88.20
53926;DHT22;39836;52.754;6.866;2024-02-14T11:38:37;12.10;88.20
53926;DHT22;39836;52.754;6.866;2024-02-14T11:41:05;12.10;88.20
53926;DHT22;39836;52.754;6.866;2024-02-14T11:43:32;12.10;88.20
53926;DHT22;39836;52.754;6.866;2024-02-14T11:48:46;12.20;88.20
53926;DHT22;39836;52.754;6.866;2024-02-14T11:51:12;12.30;88.20
53926;DHT22;39836;52.754;6.866;2024-02-14T11:53:38;12.40;88.30
53926;DHT22;39836;52.754;6.866;2024-02-14T11:56:06;12.30;88.30
53926;DHT22;39836;52.754;6.866;2024-02-14T11:58:32;12.30;88.30
53926;DHT22;39836;52.754;6.866;2024-02-14T12:00:58;12.40;88.30
53926;DHT22;39836;52.754;6.866;2024-02-14T12:03:27;12.50;88.40
53926;DHT22;39836;52.754;6.866;2024-02-14T12:05:54;12.40;88.30
53926;DHT22;39836;52.754;6.866;2024-02-14T12:08:20;12.40;88.40
53926;DHT22;39836;52.754;6.866;2024-02-14T12:10:47;12.50;88.40
53926;DHT22;39836;52.754;6.866;2024-02-14T12:13:19;12.60;88.40
53926;DHT22;39836;52.754;6.866;2024-02-14T12:15:49;12.60;88.40
53926;DHT22;39836;52.754;6.866;2024-02-14T12:18:16;12.60;88.50
53926;DHT22;39836;52.754;6.866;2024-02-14T12:20:44;12.60;88.50
53926;DHT22;39836;52.754;6.866;2024-02-14T12:23:17;12.60;88.50
53926;DHT22;39836;52.754;6.866;2024-02-14T12:25:44;12.70;88.60
53926;DHT22;39836;52.754;6.866;2024-02-14T12:28:18;12.60;88.50
53926;DHT22;39836;52.754;6.866;2024-02-14T12:30:46;12.70;88.60
53926;DHT22;39836;52.754;6.866;2024-02-14T12:33:14;12.60;88.60
53926;DHT22;39836;52.754;6.866;2024-02-14T12:35:45;12.70;88.60
53926;DHT22;39836;52.754;6.866;2024-02-14T12:38:12;12.70;88.60
53926;DHT22;39836;52.754;6.866;2024-02-14T12:40:39;12.70;88.60
53926;DHT22;39836;52.754;6.866;2024-02-14T12:43:09;12.70;88.60
53926;DHT22;39836;52.754;6.866;2024-02-14T12:45:35;12.70;88.60
53926;DHT22;39836;52.754;6.866;2024-02-14T12:48:01;12.70;88.60
53926;DHT22;39836;52.754;6.866;2024-02-14T12:50:27;12.70;88.70
53926;DHT22;39836;52.754;6.866;2024-02-14T12:52:52;12.70;88.60
53926;DHT22;39836;52.754;6.866;2024-02-14T12:55:18;12.70;88.70
53926;DHT22;39836;52.754;6.866;2024-02-14T12:57:49;12.80;88.70
53926;DHT22;39836;52.754;6.866;2024-02-14T13:00:15;12.80;88.70
53926;DHT22;39836;52.754;6.866;2024-02-14T13:02:40;12.80;88.70
53926;DHT22;39836;52.754;6.866;2024-02-14T13:05:06;12.80;88.80
53926;DHT22;39836;52.754;6.866;2024-02-14T13:07:35;12.80;88.80
53926;DHT22;39836;52.754;6.866;2024-02-14T13:10:01;12.80;88.80
53926;DHT22;39836;52.754;6.866;2024-02-14T13:12:28;12.70;88.80
53926;DHT22;39836;52.754;6.866;2024-02-14T13:14:54;12.70;88.80
53926;DHT22;39836;52.754;6.866;2024-02-14T13:17:20;12.70;88.80
53926;DHT22;39836;52.754;6.866;2024-02-14T13:19:46;12.70;88.80
53926;DHT22;39836;52.754;6.866;2024-02-14T13:22:15;12.60;88.70
53926;DHT22;39836;52.754;6.866;2024-02-14T13:24:41;12.60;88.70
53926;DHT22;39836;52.754;6.866;2024-02-14T13:27:08;12.60;88.70
53926;DHT22;39836;52.754;6.866;2024-02-14T13:29:35;12.60;88.70
53926;DHT22;39836;52.754;6.866;2024-02-14T13:32:01;12.60;88.80
53926;DHT22;39836;52.754;6.866;2024-02-14T13:34:28;12.60;88.70
53926;DHT22;39836;52.754;6.866;2024-02-14T13:36:54;12.50;88.70
53926;DHT22;39836;52.754;6.866;2024-02-14T13:39:19;12.60;88.70
53926;DHT22;39836;52.754;6.866;2024-02-14T13:41:45;12.60;88.70
53926;DHT22;39836;52.754;6.866;2024-02-14T13:44:11;12.50;88.70
53926;DHT22;39836;52.754;6.866;2024-02-14T13:46:37;12.60;88.70
53926;DHT22;39836;52.754;6.866;2024-02-14T13:49:03;12.50;88.70
53926;DHT22;39836;52.754;6.866;2024-02-14T13:51:28;12.60;88.70
53926;DHT22;39836;52.754;6.866;2024-02-14T13:53:55;12.60;88.70
53926;DHT22;39836;52.754;6.866;2024-02-14T13:56:21;12.60;88.70
53926;DHT22;39836;52.754;6.866;2024-02-14T13:58:48;12.70;88.70
53926;DHT22;39836;52.754;6.866;2024-02-14T14:01:16;12.60;88.70
53926;DHT22;39836;52.754;6.866;2024-02-14T14:03:43;12.60;88.70
53926;DHT22;39836;52.754;6.866;2024-02-14T14:06:08;12.60;88.70
53926;DHT22;39836;52.754;6.866;2024-02-14T14:08:35;12.70;88.70
53926;DHT22;39836;52.754;6.866;2024-02-14T14:11:04;12.60;88.80
53926;DHT22;39836;52.754;6.866;2024-02-14T14:13:30;12.60;88.70
53926;DHT22;39836;52.754;6.866;2024-02-14T14:15:59;12.60;88.70
53926;DHT22;39836;52.754;6.866;2024-02-14T14:18:25;12.70;88.70
53926;DHT22;39836;52.754;6.866;2024-02-14T14:20:50;12.80;88.80
53926;DHT22;39836;52.754;6.866;2024-02-14T14:23:16;12.70;88.70
53926;DHT22;39836;52.754;6.866;2024-02-14T14:25:42;12.70;88.70
53926;DHT22;39836;52.754;6.866;2024-02-14T14:28:07;12.70;88.70
53926;DHT22;39836;52.754;6.866;2024-02-14T14:30:38;12.70;88.70
53926;DHT22;39836;52.754;6.866;2024-02-14T14:33:04;12.60;88.70
53926;DHT22;39836;52.754;6.866;2024-02-14T14:35:30;12.70;88.70
53926;DHT22;39836;52.754;6.866;2024-02-14T14:37:59;12.60;88.70
53926;DHT22;39836;52.754;6.866;2024-02-14T14:40:25;12.50;88.70
53926;DHT22;39836;52.754;6.866;2024-02-14T14:42:51;12.60;88.70
53926;DHT22;39836;52.754;6.866;2024-02-14T14:45:18;12.60;88.70
53926;DHT22;39836;52.754;6.866;2024-02-14T14:47:43;12.60;88.70
53926;DHT22;39836;52.754;6.866;2024-02-14T14:50:09;12.50;88.60
53926;DHT22;39836;52.754;6.866;2024-02-14T14:52:36;12.50;88.60
53926;DHT22;39836;52.754;6.866;2024-02-14T14:55:04;12.50;88.60
53926;DHT22;39836;52.754;6.866;2024-02-14T14:57:29;12.50;88.60
53926;DHT22;39836;52.754;6.866;2024-02-14T14:59:55;12.60;88.70
53926;DHT22;39836;52.754;6.866;2024-02-14T15:02:21;12.50;88.60
53926;DHT22;39836;52.754;6.866;2024-02-14T15:04:51;12.50;88.60
53926;DHT22;39836;52.754;6.866;2024-02-14T15:07:17;12.50;88.60
53926;DHT22;39836;52.754;6.866;2024-02-14T15:09:45;12.50;88.60
53926;DHT22;39836;52.754;6.866;2024-02-14T15:12:11;12.50;88.60
53926;DHT22;39836;52.754;6.866;2024-02-14T15:14:37;12.40;88.60
53926;DHT22;39836;52.754;6.866;2024-02-14T15:17:03;12.50;88.60
53926;DHT22;39836;52.754;6.866;2024-02-14T15:19:30;12.50;88.60
53926;DHT22;39836;52.754;6.866;2024-02-14T15:21:56;12.60;88.70
53926;DHT22;39836;52.754;6.866;2024-02-14T15:24:23;12.60;88.70
53926;DHT22;39836;52.754;6.866;2024-02-14T15:26:49;12.60;88.70
53926;DHT22;39836;52.754;6.866;2024-02-14T15:29:18;12.50;88.60
53926;DHT22;39836;52.754;6.866;2024-02-14T15:32:03;12.60;88.70
53926;DHT22;39836;52.754;6.866;2024-02-14T15:34:47;12.60;88.70
53926;DHT22;39836;52.754;6.866;2024-02-14T15:37:13;12.60;88.70
53926;DHT22;39836;52.754;6.866;2024-02-14T15:39:39;12.50;88.60
53926;DHT22;39836;52.754;6.866;2024-02-14T15:42:05;12.60;88.70
53926;DHT22;39836;52.754;6.866;2024-02-14T15:44:31;12.50;88.60
53926;DHT22;39836;52.754;6.866;2024-02-14T15:46:57;12.50;88.60
53926;DHT22;39836;52.754;6.866;2024-02-14T15:49:23;12.60;88.70
53926;DHT22;39836;52.754;6.866;2024-02-14T15:51:48;12.60;88.70
53926;DHT22;39836;52.754;6.866;2024-02-14T15:54:16;12.50;88.70
53926;DHT22;39836;52.754;6.866;2024-02-14T15:56:42;12.50;88.60
53926;DHT22;39836;52.754;6.866;2024-02-14T15:59:08;12.60;88.70
53926;DHT22;39836;52.754;6.866;2024-02-14T16:01:34;12.50;88.60
53926;DHT22;39836;52.754;6.866;2024-02-14T16:04:00;12.60;88.70
53926;DHT22;39836;52.754;6.866;2024-02-14T16:06:25;12.50;88.60
53926;DHT22;39836;52.754;6.866;2024-02-14T16:08:51;12.50;88.60
53926;DHT22;39836;52.754;6.866;2024-02-14T16:11:18;12.60;88.70
53926;DHT22;39836;52.754;6.866;2024-02-14T16:13:44;12.60;88.70
53926;DHT22;39836;52.754;6.866;2024-02-14T16:16:09;12.60;88.70
53926;DHT22;39836;52.754;6.866;2024-02-14T16:18:35;12.60;88.70
53926;DHT22;39836;52.754;6.866;2024-02-14T16:21:02;12.60;88.60
53926;DHT22;39836;52.754;6.866;2024-02-14T16:23:28;12.50;88.60
53926;DHT22;39836;52.754;6.866;2024-02-14T16:25:53;12.60;88.60
53926;DHT22;39836;52.754;6.866;2024-02-14T16:28:19;12.60;88.60
53926;DHT22;39836;52.754;6.866;2024-02-14T16:30:45;12.60;88.60
53926;DHT22;39836;52.754;6.866;2024-02-14T16:33:11;12.50;88.60
53926;DHT22;39836;52.754;6.866;2024-02-14T16:35:37;12.50;88.60
53926;DHT22;39836;52.754;6.866;2024-02-14T16:38:03;12.50;88.60
53926;DHT22;39836;52.754;6.866;2024-02-14T16:40:28;12.60;88.60
53926;DHT22;39836;52.754;6.866;2024-02-14T16:42:56;12.50;88.60
53926;DHT22;39836;52.754;6.866;2024-02-14T16:45:22;12.60;88.60
53926;DHT22;39836;52.754;6.866;2024-02-14T16:47:48;12.50;88.60
53926;DHT22;39836;52.754;6.866;2024-02-14T16:50:14;12.50;88.60
53926;DHT22;39836;52.754;6.866;2024-02-14T16:52:40;12.50;88.60
53926;DHT22;39836;52.754;6.866;2024-02-14T16:55:06;12.50;88.50
53926;DHT22;39836;52.754;6.866;2024-02-14T16:57:32;12.60;88.60
53926;DHT22;39836;52.754;6.866;2024-02-14T16:59:57;12.40;88.50
53926;DHT22;39836;52.754;6.866;2024-02-14T17:02:23;12.50;88.50
53926;DHT22;39836;52.754;6.866;2024-02-14T17:04:49;12.50;88.50
53926;DHT22;39836;52.754;6.866;2024-02-14T17:07:16;12.50;88.50
53926;DHT22;39836;52.754;6.866;2024-02-14T17:09:41;12.40;88.50
53926;DHT22;39836;52.754;6.866;2024-02-14T17:12:08;12.50;88.50
53926;DHT22;39836;52.754;6.866;2024-02-14T17:14:34;12.40;88.50
53926;DHT22;39836;52.754;6.866;2024-02-14T17:17:00;12.50;88.50
53926;DHT22;39836;52.754;6.866;2024-02-14T17:19:26;12.50;88.60
53926;DHT22;39836;52.754;6.866;2024-02-14T17:21:52;12.40;88.40
53926;DHT22;39836;52.754;6.866;2024-02-14T17:24:18;12.40;88.40
53926;DHT22;39836;52.754;6.866;2024-02-14T17:26:44;12.40;88.40
53926;DHT22;39836;52.754;6.866;2024-02-14T17:29:11;12.50;88.40
53926;DHT22;39836;52.754;6.866;2024-02-14T17:31:38;12.50;88.40
53926;DHT22;39836;52.754;6.866;2024-02-14T17:34:04;12.40;88.40
53926;DHT22;39836;52.754;6.866;2024-02-14T17:36:30;12.40;88.40
53926;DHT22;39836;52.754;6.866;2024-02-14T17:38:56;12.50;88.40
53926;DHT22;39836;52.754;6.866;2024-02-14T17:41:27;12.50;88.40
53926;DHT22;39836;52.754;6.866;2024-02-14T17:43:56;12.40;88.40
53926;DHT22;39836;52.754;6.866;2024-02-14T17:46:22;12.50;88.40
53926;DHT22;39836;52.754;6.866;2024-02-14T17:48:48;12.40;88.40
53926;DHT22;39836;52.754;6.866;2024-02-14T17:51:14;12.50;88.40
53926;DHT22;39836;52.754;6.866;2024-02-14T17:53:40;12.40;88.30
53926;DHT22;39836;52.754;6.866;2024-02-14T17:56:06;12.50;88.40
53926;DHT22;39836;52.754;6.866;2024-02-14T17:58:32;12.60;88.40
53926;DHT22;39836;52.754;6.866;2024-02-14T18:00:58;12.40;88.30
53926;DHT22;39836;52.754;6.866;2024-02-14T18:03:25;12.50;88.40
53926;DHT22;39836;52.754;6.866;2024-02-14T18:05:52;12.50;88.30
53926;DHT22;39836;52.754;6.866;2024-02-14T18:08:18;12.60;88.40
53926;DHT22;39836;52.754;6.866;2024-02-14T18:10:43;12.60;88.40
53926;DHT22;39836;52.754;6.866;2024-02-14T18:13:11;12.50;88.40
53926;DHT22;39836;52.754;6.866;2024-02-14T18:15:38;12.50;88.40
53926;DHT22;39836;52.754;6.866;2024-02-14T18:18:05;12.50;88.50
53926;DHT22;39836;52.754;6.866;2024-02-14T18:20:32;12.50;88.40
53926;DHT22;39836;52.754;6.866;2024-02-14T18:23:00;12.60;88.40
53926;DHT22;39836;52.754;6.866;2024-02-14T18:25:25;12.50;88.40
53926;DHT22;39836;52.754;6.866;2024-02-14T18:27:51;12.60;88.40
53926;DHT22;39836;52.754;6.866;2024-02-14T18:30:19;12.50;88.40
53926;DHT22;39836;52.754;6.866;2024-02-14T18:32:45;12.60;88.40
53926;DHT22;39836;52.754;6.866;2024-02-14T18:35:11;12.60;88.40
53926;DHT22;39836;52.754;6.866;2024-02-14T18:37:37;12.60;88.40
53926;DHT22;39836;52.754;6.866;2024-02-14T18:40:03;12.60;88.40
53926;DHT22;39836;52.754;6.866;2024-02-14T18:42:31;12.60;88.40
53926;DHT22;39836;52.754;6.866;2024-02-14T18:44:57;12.70;88.40
53926;DHT22;39836;52.754;6.866;2024-02-14T18:47:23;12.70;88.40
53926;DHT22;39836;52.754;6.866;2024-02-14T18:49:49;12.60;88.30
53926;DHT22;39836;52.754;6.866;2024-02-14T18:52:15;12.70;88.40
53926;DHT22;39836;52.754;6.866;2024-02-14T18:54:41;12.60;88.30
53926;DHT22;39836;52.754;6.866;2024-02-14T18:57:06;12.60;88.40
53926;DHT22;39836;52.754;6.866;2024-02-14T18:59:40;12.70;88.30
53926;DHT22;39836;52.754;6.866;2024-02-14T19:02:07;12.70;88.30
53926;DHT22;39836;52.754;6.866;2024-02-14T19:04:33;12.70;88.30
53926;DHT22;39836;52.754;6.866;2024-02-14T19:06:59;12.70;88.30
53926;DHT22;39836;52.754;6.866;2024-02-14T19:09:25;12.80;88.40
53926;DHT22;39836;52.754;6.866;2024-02-14T19:11:52;12.70;88.30
53926;DHT22;39836;52.754;6.866;2024-02-14T19:14:18;12.80;88.30
53926;DHT22;39836;52.754;6.866;2024-02-14T19:16:48;12.90;88.40
53926;DHT22;39836;52.754;6.866;2024-02-14T19:19:15;12.90;88.40
53926;DHT22;39836;52.754;6.866;2024-02-14T19:21:41;12.80;88.30
53926;DHT22;39836;52.754;6.866;2024-02-14T19:24:07;12.80;88.30
53926;DHT22;39836;52.754;6.866;2024-02-14T19:26:33;12.80;88.30
53926;DHT22;39836;52.754;6.866;2024-02-14T19:28:59;12.90;88.40
53926;DHT22;39836;52.754;6.866;2024-02-14T19:31:24;12.80;88.30
53926;DHT22;39836;52.754;6.866;2024-02-14T19:33:50;12.80;88.30
53926;DHT22;39836;52.754;6.866;2024-02-14T19:36:16;12.90;88.30
53926;DHT22;39836;52.754;6.866;2024-02-14T19:38:41;12.80;88.30
53926;DHT22;39836;52.754;6.866;2024-02-14T19:41:07;12.80;88.30
53926;DHT22;39836;52.754;6.866;2024-02-14T19:43:33;12.80;88.30
53926;DHT22;39836;52.754;6.866;2024-02-14T19:45:59;12.70;88.30
53926;DHT22;39836;52.754;6.866;2024-02-14T19:48:25;12.80;88.30
53926;DHT22;39836;52.754;6.866;2024-02-14T19:50:56;12.80;88.30
53926;DHT22;39836;52.754;6.866;2024-02-14T19:53:22;12.70;88.30
53926;DHT22;39836;52.754;6.866;2024-02-14T19:55:48;12.70;88.30
53926;DHT22;39836;52.754;6.866;2024-02-14T19:58:15;12.80;88.30
53926;DHT22;39836;52.754;6.866;2024-02-14T20:00:40;12.80;88.30
53926;DHT22;39836;52.754;6.866;2024-02-14T20:03:06;12.80;88.30
53926;DHT22;39836;52.754;6.866;2024-02-14T20:05:32;12.70;88.30
53926;DHT22;39836;52.754;6.866;2024-02-14T20:08:02;12.80;88.30
53926;DHT22;39836;52.754;6.866;2024-02-14T20:10:28;12.70;88.30
53926;DHT22;39836;52.754;6.866;2024-02-14T20:12:54;12.70;88.30
53926;DHT22;39836;52.754;6.866;2024-02-14T20:15:19;12.70;88.30
53926;DHT22;39836;52.754;6.866;2024-02-14T20:17:45;12.70;88.30
53926;DHT22;39836;52.754;6.866;2024-02-14T20:20:14;12.70;88.30
53926;DHT22;39836;52.754;6.866;2024-02-14T20:22:40;12.70;88.30
53926;DHT22;39836;52.754;6.866;2024-02-14T20:25:07;12.70;88.30
53926;DHT22;39836;52.754;6.866;2024-02-14T20:27:35;12.70;88.30
53926;DHT22;39836;52.754;6.866;2024-02-14T20:30:00;12.60;88.30
53926;DHT22;39836;52.754;6.866;2024-02-14T20:32:28;12.60;88.30
53926;DHT22;39836;52.754;6.866;2024-02-14T20:34:54;12.70;88.30
53926;DHT22;39836;52.754;6.866;2024-02-14T20:37:20;12.70;88.30
53926;DHT22;39836;52.754;6.866;2024-02-14T20:39:46;12.60;88.30
53926;DHT22;39836;52.754;6.866;2024-02-14T20:42:12;12.70;88.30
53926;DHT22;39836;52.754;6.866;2024-02-14T20:44:40;12.60;88.30
53926;DHT22;39836;52.754;6.866;2024-02-14T20:47:05;12.60;88.40
53926;DHT22;39836;52.754;6.866;2024-02-14T20:49:31;12.70;88.40
53926;DHT22;39836;52.754;6.866;2024-02-14T20:51:57;12.70;88.40
53926;DHT22;39836;52.754;6.866;2024-02-14T20:54:23;12.70;88.40
53926;DHT22;39836;52.754;6.866;2024-02-14T20:56:49;12.70;88.40
53926;DHT22;39836;52.754;6.866;2024-02-14T20:59:14;12.70;88.40
53926;DHT22;39836;52.754;6.866;2024-02-14T21:01:41;12.70;88.40
53926;DHT22;39836;52.754;6.866;2024-02-14T21:04:07;12.60;88.40
53926;DHT22;39836;52.754;6.866;2024-02-14T21:06:33;12.70;88.40
53926;DHT22;39836;52.754;6.866;2024-02-14T21:08:59;12.60;88.40
53926;DHT22;39836;52.754;6.866;2024-02-14T21:11:25;12.60;88.40
53926;DHT22;39836;52.754;6.866;2024-02-14T21:13:51;12.70;88.40
53926;DHT22;39836;52.754;6.866;2024-02-14T21:16:16;12.70;88.40
53926;DHT22;39836;52.754;6.866;2024-02-14T21:18:42;12.80;88.40
53926;DHT22;39836;52.754;6.866;2024-02-14T21:21:08;12.70;88.40
53926;DHT22;39836;52.754;6.866;2024-02-14T21:23:34;12.80;88.40
53926;DHT22;39836;52.754;6.866;2024-02-14T21:25:59;12.80;88.40
53926;DHT22;39836;52.754;6.866;2024-02-14T21:28:25;12.70;88.40
53926;DHT22;39836;52.754;6.866;2024-02-14T21:30:51;12.80;88.40
53926;DHT22;39836;52.754;6.866;2024-02-14T21:33:17;12.80;88.50
53926;DHT22;39836;52.754;6.866;2024-02-14T21:35:42;12.80;88.50
53926;DHT22;39836;52.754;6.866;2024-02-14T21:38:12;12.80;88.50
53926;DHT22;39836;52.754;6.866;2024-02-14T21:40:37;12.70;88.40
53926;DHT22;39836;52.754;6.866;2024-02-14T21:43:03;12.70;88.40
53926;DHT22;39836;52.754;6.866;2024-02-14T21:45:30;12.80;88.50
53926;DHT22;39836;52.754;6.866;2024-02-14T21:47:56;12.80;88.50
53926;DHT22;39836;52.754;6.866;2024-02-14T21:50:22;12.80;88.50
53926;DHT22;39836;52.754;6.866;2024-02-14T21:52:48;12.80;88.50
53926;DHT22;39836;52.754;6.866;2024-02-14T21:55:13;12.80;88.50
53926;DHT22;39836;52.754;6.866;2024-02-14T21:57:39;12.70;88.40
53926;DHT22;39836;52.754;6.866;2024-02-14T22:00:06;12.80;88.50
53926;DHT22;39836;52.754;6.866;2024-02-14T22:02:32;12.70;88.40
53926;DHT22;39836;52.754;6.866;2024-02-14T22:04:58;12.80;88.40
53926;DHT22;39836;52.754;6.866;2024-02-14T22:07:24;12.80;88.40
53926;DHT22;39836;52.754;6.866;2024-02-14T22:09:50;12.70;88.40
53926;DHT22;39836;52.754;6.866;2024-02-14T22:12:15;12.80;88.40
53926;DHT22;39836;52.754;6.866;2024-02-14T22:14:41;12.70;88.40
53926;DHT22;39836;52.754;6.866;2024-02-14T22:17:07;12.70;88.40
53926;DHT22;39836;52.754;6.866;2024-02-14T22:19:37;12.80;88.40
53926;DHT22;39836;52.754;6.866;2024-02-14T22:22:06;12.70;88.40
53926;DHT22;39836;52.754;6.866;2024-02-14T22:24:32;12.80;88.40
53926;DHT22;39836;52.754;6.866;2024-02-14T22:26:58;12.80;88.40
53926;DHT22;39836;52.754;6.866;2024-02-14T22:29:24;12.80;88.40
53926;DHT22;39836;52.754;6.866;2024-02-14T22:31:50;12.70;88.40
53926;DHT22;39836;52.754;6.866;2024-02-14T22:34:16;12.70;88.40
53926;DHT22;39836;52.754;6.866;2024-02-14T22:36:42;12.60;88.40
53926;DHT22;39836;52.754;6.866;2024-02-14T22:39:07;12.60;88.40
53926;DHT22;39836;52.754;6.866;2024-02-14T22:41:33;12.60;88.30
53926;DHT22;39836;52.754;6.866;2024-02-14T22:44:01;12.70;88.40
53926;DHT22;39836;52.754;6.866;2024-02-14T22:46:26;12.70;88.40
53926;DHT22;39836;52.754;6.866;2024-02-14T22:48:52;12.70;88.40
53926;DHT22;39836;52.754;6.866;2024-02-14T22:51:21;12.60;88.30
53926;DHT22;39836;52.754;6.866;2024-02-14T22:53:47;12.60;88.30
53926;DHT22;39836;52.754;6.866;2024-02-14T22:56:13;12.60;88.30
53926;DHT22;39836;52.754;6.866;2024-02-14T22:58:40;12.70;88.30
53926;DHT22;39836;52.754;6.866;2024-02-14T23:01:06;12.70;88.30
53926;DHT22;39836;52.754;6.866;2024-02-14T23:03:31;12.80;88.30
53926;DHT22;39836;52.754;6.866;2024-02-14T23:05:58;12.70;88.30
53926;DHT22;39836;52.754;6.866;2024-02-14T23:08:25;12.70;88.30
53926;DHT22;39836;52.754;6.866;2024-02-14T23:10:52;12.70;88.30
53926;DHT22;39836;52.754;6.866;2024-02-14T23:13:18;12.70;88.30
53926;DHT22;39836;52.754;6.866;2024-02-14T23:15:43;12.70;88.30
53926;DHT22;39836;52.754;6.866;2024-02-14T23:18:09;12.80;88.40
53926;DHT22;39836;52.754;6.866;2024-02-14T23:20:35;12.80;88.30
53926;DHT22;39836;52.754;6.866;2024-02-14T23:23:04;12.70;88.30
53926;DHT22;39836;52.754;6.866;2024-02-14T23:25:29;12.70;88.30
53926;DHT22;39836;52.754;6.866;2024-02-14T23:27:56;12.80;88.30
53926;DHT22;39836;52.754;6.866;2024-02-14T23:30:22;12.70;88.30
53926;DHT22;39836;52.754;6.866;2024-02-14T23:32:48;12.80;88.30
53926;DHT22;39836;52.754;6.866;2024-02-14T23:35:15;12.80;88.30
53926;DHT22;39836;52.754;6.866;2024-02-14T23:37:43;12.80;88.30
53926;DHT22;39836;52.754;6.866;2024-02-14T23:40:11;12.80;88.30
53926;DHT22;39836;52.754;6.866;2024-02-14T23:42:40;12.80;88.30
53926;DHT22;39836;52.754;6.866;2024-02-14T23:45:07;12.70;88.30
53926;DHT22;39836;52.754;6.866;2024-02-14T23:47:33;12.70;88.30
53926;DHT22;39836;52.754;6.866;2024-02-14T23:50:03;12.70;88.30
53926;DHT22;39836;52.754;6.866;2024-02-14T23:52:32;12.80;88.30
53926;DHT22;39836;52.754;6.866;2024-02-14T23:55:00;12.90;88.40
53926;DHT22;39836;52.754;6.866;2024-02-14T23:57:27;12.80;88.30
53926;DHT22;39836;52.754;6.866;2024-02-14T23:59:54;12.80;88.30
